Dauntless Aviation
Greetings, Guest! To participate, [sign up for a free account] or [log in]
Airports Europe United Kingdom
EGLC
LCY

London City

London, UNITED KINGDOM

Airport Info
Edit

Location

Latitude / Longitude: 51°30'18"N / 0°3'12"E
  51°30.3'N / 0°3.21'E
  51.5050 / 0.0535

Nearby radio navigation aids

LCY CITY NDB on field.

Runway Information

Runway 10 /28

Dimensions: 4948 x 98 ft.
Surface: ASP
 
Runway 10
Runway 28
Latitude: 51.505528 51.504922
Longitude: 0.045753 0.064953
Elevation: 16 ft. 16 ft.
Runway true heading: 91.1 271.1
 

Instrument Procedures

  Control Zone and Control Area Chart
  Aircraft Parking/Docking Chart
  Aerodrome Chart

STARs (Standard Terminal Arrivals)

  STAR via SPEAR (Northwest)
  STAR via ALKIN (South)
  STAR via SPEAR (East)
  STAR via SPEAR (West)
  STAR via SPEAR (Alternate Holding at LOGAN and ALKIN)

IAPs (Instrument Approach Procedures)

  LOC/DME/NDB (L) Rwy 27 (Aircraft CAT A/B/C)
  Visual Approach Profile Rwy 27
  ILS (5.5°GP) /DME/NDB (L) Rwy 27 (Aircraft CAT A/B/C)
  Visual Approach Profile Rwy 09
  LOC/DME/NDB (L) Rwy 09
  ATC Surveillance Minimum Altitude Chart
  ILS (5.5°GP) /DME/NDB (L) Rwy 09 (Aircraft CAT A/B/C)

Departure Procedures

  SID DOVER/LYDD
  SID CLACTON
  SID SOUTHAMPTON
  SID BROOKMANS PARK/COMPTON
Satellite photo at:
Airport distance calculator
From:
Weather Reports

METAR

EGLC

EGLC 261350Z 31009KT 290V350 9999 SCT030 09/02 Q1022
EGKB
11.4nm S
EGKB 261350Z 32011KT 280V350 9999 FEW025 08/02 Q1022
EGWU
17.8nm W
EGWU 261350Z 33011KT 9999 FEW020 SCT030 BKN220 09/02 Q1023 BLU NOSIG
EGLL
18.9nm SW
EGLL 261350Z 32009KT 300V010 9999 FEW043 09/03 Q1023
EGSS
23.5nm N
EGSS 261350Z 30012KT 9999 FEW031 08/02 Q1022
EGKK
23.8nm S
EGKK 261350Z 34010KT 9999 BKN025 09/04 Q1023

TAF

EGLC
TAF EGLC 261101Z 2612/2621 30007KT 9999 SCT030
EGKB
11.4nm S
TAF EGKB 261101Z 2612/2621 32010KT 9999 BKN008 BECMG 2612/2614 SCT020
EGWU
17.8nm W
TAF EGWU 261031Z 2612/2706 32012KT 9999 SCT025 PROB30 TEMPO 2612/2613 BKN020
EGLL
18.9nm SW
TAF EGLL 261100Z 2612/2718 33010KT 9999 SCT030 BECMG 2703/2706 27005KT
EGSS
23.5nm N
TAF EGSS 261101Z 2612/2718 31011KT 9999 SCT030 PROB30 TEMPO 2714/2718 BKN013
EGKK
23.8nm S
TAF EGKK 261100Z 2612/2718 32008KT 9999 SCT025 PROB30 2612/2613 5000 -DZ BKN010 PROB30 2705/2708 8000
Safelog

 

Dauntless Aviation

© 2007-2015 Dauntless Aviation, all rights reserved
Information provided via PilotNav comes from a variety of official and unofficial data sources. As errors are possible, do not use PilotNav for primary flight planning purposes. Verify any information that you receive via PilotNav with current and canonical charts and other official documents. The material in this database is subject to database copyrights held by Dauntless Aviation and may not be copied without the express permission of Dauntless Aviation - licenses for use of part of all of this data are available for purchase; enquire via the Dauntless Aviation helpdesk. A number of mechanisms and markers exist in the database to protect against and identify infringement / copyright. Automated queries against this website are stictly prohibited, and all activity is logged and analyzed.